Time;durP1;ratioP1;P1;durP2;ratioP2;P2;SDS_P1;SDS_P2;PMS_P1;PMS_P2;Temp;Humidity;BMP_temperature;BMP_pressure;BME280_temperature;BME280_humidity;BME280_pressure;Samples;Min_cycle;Max_cycle;Signal;HPM_P1;HPM_P2
2024/01/30 00:01:25;;;;;;;11.67;7.93;;;9.90;53.90;;;;;;5021800;28;20185;-61
2024/01/30 00:03:51;;;;;;;10.77;8.60;;;9.90;53.90;;;;;;5024540;28;20558;-60
2024/01/30 00:06:20;;;;;;;11.57;8.50;;;9.90;53.80;;;;;;5024693;28;20650;-61
2024/01/30 00:08:48;;;;;;;10.80;8.03;;;9.90;54.00;;;;;;5026281;28;20534;-61
2024/01/30 00:11:14;;;;;;;10.43;7.43;;;9.90;53.90;;;;;;5026286;28;20499;-61
2024/01/30 00:13:40;;;;;;;9.87;8.50;;;9.90;53.90;;;;;;5021631;28;20471;-61
2024/01/30 00:16:06;;;;;;;9.97;8.13;;;9.60;54.10;;;;;;5020851;28;20216;-58
2024/01/30 00:18:31;;;;;;;10.00;8.00;;;9.20;55.40;;;;;;5023225;28;20196;-60
2024/01/30 00:20:57;;;;;;;11.00;8.57;;;9.20;55.50;;;;;;5021968;28;20467;-61
2024/01/30 00:23:22;;;;;;;12.53;8.53;;;9.20;55.60;;;;;;5020493;28;20181;-61
2024/01/30 00:25:48;;;;;;;11.33;8.93;;;9.10;55.60;;;;;;5022582;28;20205;-60
2024/01/30 00:28:13;;;;;;;10.20;8.53;;;9.20;55.60;;;;;;5020685;28;20524;-60
2024/01/30 00:30:39;;;;;;;9.90;8.60;;;9.20;55.40;;;;;;5018805;28;20370;-62
2024/01/30 00:33:04;;;;;;;11.50;8.63;;;9.30;55.40;;;;;;5020018;28;20193;-61
2024/01/30 00:35:30;;;;;;;14.73;7.80;;;8.90;55.60;;;;;;5020932;28;20181;-58
2024/01/30 00:37:55;;;;;;;11.43;8.90;;;8.60;56.50;;;;;;5020157;28;21440;-58
2024/01/30 00:40:21;;;;;;;8.83;7.90;;;8.30;57.40;;;;;;5017935;28;20672;-61
2024/01/30 00:42:47;;;;;;;12.40;9.17;;;8.40;57.50;;;;;;5020921;28;20201;-61
2024/01/30 00:45:16;;;;;;;10.50;7.70;;;8.60;57.20;;;;;;5025125;28;20177;-61
2024/01/30 00:47:42;;;;;;;10.90;7.23;;;8.80;56.80;;;;;;5025789;28;20232;-59
2024/01/30 00:50:08;;;;;;;11.60;8.50;;;8.90;56.40;;;;;;5019540;28;20472;-61
2024/01/30 00:52:34;;;;;;;10.90;8.00;;;8.90;56.00;;;;;;5021512;28;20494;-61
2024/01/30 00:55:00;;;;;;;12.10;8.30;;;8.80;56.20;;;;;;5019595;28;20442;-61
2024/01/30 00:57:27;;;;;;;9.13;7.47;;;8.70;56.60;;;;;;5020774;28;20498;-62
2024/01/30 00:59:52;;;;;;;12.37;8.53;;;8.60;57.00;;;;;;5016698;28;20453;-61
2024/01/30 01:02:18;;;;;;;9.03;7.70;;;8.30;57.30;;;;;;5018230;28;20493;-61
2024/01/30 01:04:45;;;;;;;11.13;8.57;;;8.10;58.30;;;;;;5018902;28;20190;-60
2024/01/30 01:07:11;;;;;;;9.27;7.60;;;7.80;58.80;;;;;;5019004;28;20209;-60
2024/01/30 01:09:37;;;;;;;11.90;7.80;;;7.50;59.60;;;;;;5024140;28;20471;-60
2024/01/30 01:12:03;;;;;;;9.37;8.30;;;7.40;60.40;;;;;;5019714;28;20513;-61
2024/01/30 01:14:29;;;;;;;9.80;7.97;;;7.60;60.40;;;;;;5026090;28;20185;-61
2024/01/30 01:16:55;;;;;;;10.30;7.03;;;7.80;60.00;;;;;;5025212;28;20994;-61
2024/01/30 01:19:20;;;;;;;12.27;8.40;;;8.10;59.00;;;;;;5023965;28;20185;-59
2024/01/30 01:21:46;;;;;;;9.20;7.50;;;8.10;58.80;;;;;;5024028;28;20244;-60
2024/01/30 01:24:11;;;;;;;11.00;7.53;;;8.30;58.50;;;;;;5017929;28;20193;-60
2024/01/30 01:26:37;;;;;;;10.00;7.30;;;8.20;58.00;;;;;;5017308;28;20213;-59
2024/01/30 01:29:09;;;;;;;11.20;8.53;;;7.90;58.90;;;;;;5022483;28;20181;-57
2024/01/30 01:31:44;;;;;;;11.73;8.20;;;7.70;59.60;;;;;;5022299;28;20252;-61
2024/01/30 01:34:10;;;;;;;11.73;8.00;;;7.30;60.60;;;;;;5020472;28;20439;-60
2024/01/30 01:36:36;;;;;;;10.83;8.40;;;7.20;61.90;;;;;;5025255;28;20467;-60
2024/01/30 01:39:05;;;;;;;11.33;8.33;;;7.20;61.70;;;;;;5019462;28;20459;-60
2024/01/30 01:41:34;;;;;;;9.03;7.50;;;7.40;61.20;;;;;;5021108;28;20185;-62
2024/01/30 01:44:00;;;;;;;9.70;7.07;;;7.40;62.00;;;;;;5027150;28;20440;-61
2024/01/30 01:46:32;;;;;;;11.20;7.43;;;7.30;60.90;;;;;;5023269;28;20510;-60
2024/01/30 01:48:59;;;;;;;8.10;7.10;;;7.40;61.10;;;;;;5022723;28;20447;-59
2024/01/30 01:51:27;;;;;;;9.73;7.60;;;7.60;60.60;;;;;;5021723;28;20492;-59
2024/01/30 01:53:54;;;;;;;12.20;7.33;;;7.90;59.90;;;;;;5024603;28;20610;-59
2024/01/30 01:56:20;;;;;;;10.40;7.20;;;7.80;59.50;;;;;;5026226;28;20510;-62
2024/01/30 01:58:47;;;;;;;8.53;6.87;;;7.60;60.10;;;;;;5026295;28;20869;-62
2024/01/30 02:01:14;;;;;;;10.33;7.50;;;7.80;59.90;;;;;;5024257;28;20598;-59
2024/01/30 02:03:41;;;;;;;8.57;7.67;;;7.90;59.30;;;;;;5019917;28;20850;-60
2024/01/30 02:06:06;;;;;;;7.83;6.70;;;7.80;59.20;;;;;;5021960;28;21057;-59
2024/01/30 02:08:33;;;;;;;7.30;6.60;;;7.60;59.90;;;;;;5022851;28;20531;-60
2024/01/30 02:10:59;;;;;;;8.47;6.30;;;7.70;59.80;;;;;;5024287;28;20275;-59
2024/01/30 02:13:25;;;;;;;8.63;6.73;;;7.80;59.40;;;;;;5021128;28;20448;-60
2024/01/30 02:15:51;;;;;;;8.53;7.00;;;7.90;59.30;;;;;;5022404;28;20999;-60
2024/01/30 02:18:17;;;;;;;7.90;6.50;;;8.20;58.80;;;;;;5025500;28;20216;-59
2024/01/30 02:20:43;;;;;;;8.03;6.30;;;8.30;58.20;;;;;;5022625;28;20441;-61
2024/01/30 02:23:12;;;;;;;10.93;6.97;;;8.40;58.50;;;;;;5021269;28;20193;-59
2024/01/30 02:25:46;;;;;;;8.00;6.27;;;8.50;57.80;;;;;;5021860;28;20447;-60
2024/01/30 02:28:12;;;;;;;9.43;6.60;;;8.20;57.70;;;;;;5022787;28;20489;-60
2024/01/30 02:30:39;;;;;;;8.67;6.47;;;7.90;59.00;;;;;;5020552;28;20459;-62
2024/01/30 02:33:04;;;;;;;9.40;7.07;;;8.00;59.00;;;;;;5025269;28;21187;-60
2024/01/30 02:35:30;;;;;;;8.20;6.30;;;7.90;58.70;;;;;;5022169;28;20450;-60
2024/01/30 02:37:56;;;;;;;8.93;7.00;;;7.90;59.20;;;;;;5023725;28;20189;-60
2024/01/30 02:40:21;;;;;;;11.30;6.87;;;7.80;59.10;;;;;;5023748;28;20275;-61
2024/01/30 02:42:47;;;;;;;8.43;5.90;;;7.60;59.40;;;;;;5024264;28;20324;-59
2024/01/30 02:45:13;;;;;;;10.27;7.10;;;7.80;59.40;;;;;;5022085;28;20263;-60
2024/01/30 02:47:39;;;;;;;8.97;6.67;;;7.90;58.70;;;;;;5020562;28;20243;-60
2024/01/30 02:50:05;;;;;;;15.97;8.17;;;7.80;58.60;;;;;;5022113;28;20471;-61
2024/01/30 02:52:31;;;;;;;8.00;6.33;;;7.70;59.10;;;;;;5022770;28;20455;-60
2024/01/30 02:54:56;;;;;;;8.80;7.47;;;7.60;59.10;;;;;;5021165;28;20856;-60
2024/01/30 02:57:22;;;;;;;9.83;6.90;;;7.60;59.20;;;;;;5017901;28;20560;-61
2024/01/30 02:59:47;;;;;;;7.60;5.97;;;7.70;59.30;;;;;;5018516;28;20201;-60
2024/01/30 03:02:13;;;;;;;11.37;5.83;;;7.80;58.70;;;;;;5025721;28;20194;-61
2024/01/30 03:04:41;;;;;;;7.80;6.30;;;7.30;59.20;;;;;;5020316;28;20238;-62
2024/01/30 03:07:06;;;;;;;6.67;6.00;;;7.10;60.80;;;;;;5019594;28;20245;-61
2024/01/30 03:09:32;;;;;;;9.80;6.80;;;7.40;60.40;;;;;;5021523;28;21107;-59
2024/01/30 03:11:57;;;;;;;7.60;6.43;;;7.50;59.70;;;;;;5025267;28;20193;-60
2024/01/30 03:14:23;;;;;;;8.37;6.17;;;7.30;59.80;;;;;;5025089;28;20209;-59
2024/01/30 03:16:48;;;;;;;6.60;5.90;;;7.30;59.90;;;;;;5027943;28;20221;-62
2024/01/30 03:19:14;;;;;;;9.10;6.63;;;7.40;59.80;;;;;;5024328;28;20209;-60
2024/01/30 03:21:40;;;;;;;9.10;5.30;;;7.40;59.90;;;;;;5028432;28;20193;-60
2024/01/30 03:24:05;;;;;;;8.27;6.20;;;7.50;59.90;;;;;;5022485;28;20211;-61
2024/01/30 03:26:31;;;;;;;10.43;7.03;;;7.60;59.50;;;;;;5025883;28;20293;-62
2024/01/30 03:28:56;;;;;;;8.40;6.30;;;7.70;59.30;;;;;;5021836;28;20706;-58
2024/01/30 03:31:22;;;;;;;7.33;6.07;;;7.80;58.90;;;;;;5026407;28;20213;-61
2024/01/30 03:33:48;;;;;;;10.00;6.37;;;7.70;58.70;;;;;;5026523;28;20203;-60
2024/01/30 03:36:15;;;;;;;8.63;6.00;;;7.60;58.90;;;;;;5027156;28;20247;-61
2024/01/30 03:38:41;;;;;;;8.53;6.60;;;7.80;58.70;;;;;;5025593;28;20272;-60
2024/01/30 03:41:10;;;;;;;7.70;6.10;;;7.70;58.40;;;;;;5026968;28;21013;-60
2024/01/30 03:43:36;;;;;;;9.67;6.67;;;7.80;58.60;;;;;;5025934;28;20196;-61
2024/01/30 03:46:02;;;;;;;6.80;5.10;;;7.90;58.30;;;;;;5025924;28;20440;-57
2024/01/30 03:48:29;;;;;;;9.43;6.27;;;8.00;58.00;;;;;;5027839;28;20427;-59
2024/01/30 03:50:54;;;;;;;9.27;6.40;;;8.10;57.70;;;;;;5026611;28;20484;-61
2024/01/30 03:53:20;;;;;;;9.00;6.40;;;8.00;57.30;;;;;;5023583;28;20417;-58
2024/01/30 03:55:45;;;;;;;10.00;6.73;;;8.00;57.50;;;;;;5026692;28;20596;-60
2024/01/30 03:58:11;;;;;;;7.90;6.37;;;7.80;57.40;;;;;;5022824;28;20556;-57
2024/01/30 04:00:37;;;;;;;9.07;5.93;;;7.70;57.90;;;;;;5026770;28;20677;-61
2024/01/30 04:03:03;;;;;;;9.00;6.33;;;7.70;58.20;;;;;;5018852;28;20542;-60
2024/01/30 04:05:28;;;;;;;8.20;6.93;;;7.60;58.20;;;;;;5023597;28;20275;-60
2024/01/30 04:07:54;;;;;;;7.93;6.57;;;7.40;58.50;;;;;;5024915;28;20428;-61
2024/01/30 04:10:19;;;;;;;8.60;5.60;;;7.40;58.90;;;;;;5021298;28;20559;-60
2024/01/30 04:12:45;;;;;;;6.50;5.70;;;7.30;59.10;;;;;;5019705;28;20284;-59
2024/01/30 04:15:11;;;;;;;7.40;5.73;;;7.30;59.10;;;;;;5020803;28;20196;-59
2024/01/30 04:17:36;;;;;;;8.10;5.93;;;7.40;59.00;;;;;;5017993;28;20221;-63
2024/01/30 04:20:02;;;;;;;7.33;6.10;;;7.50;58.90;;;;;;5022537;28;20188;-61
2024/01/30 04:22:27;;;;;;;7.20;6.47;;;7.40;59.00;;;;;;5018454;28;20181;-60
2024/01/30 04:24:53;;;;;;;8.30;6.40;;;7.40;59.20;;;;;;5022437;28;20680;-61
2024/01/30 04:27:18;;;;;;;8.33;7.10;;;7.40;59.20;;;;;;5020379;28;20208;-61
2024/01/30 04:29:44;;;;;;;8.43;6.93;;;7.30;59.20;;;;;;5020377;28;20221;-60
2024/01/30 04:32:11;;;;;;;7.27;6.40;;;7.20;59.40;;;;;;5022635;28;20288;-61
2024/01/30 04:34:37;;;;;;;7.10;5.17;;;7.00;59.90;;;;;;5018191;28;20522;-59
2024/01/30 04:37:03;;;;;;;7.87;6.57;;;7.00;60.20;;;;;;5018978;28;20359;-61
2024/01/30 04:39:28;;;;;;;9.10;6.47;;;7.00;60.30;;;;;;5020748;28;20493;-61
2024/01/30 04:41:54;;;;;;;8.33;6.30;;;7.00;60.10;;;;;;5020176;28;20432;-59
2024/01/30 04:44:19;;;;;;;7.70;6.07;;;6.80;60.20;;;;;;5019062;28;20181;-61
2024/01/30 04:46:45;;;;;;;8.27;6.20;;;6.70;60.80;;;;;;5017285;28;20206;-61
2024/01/30 04:49:11;;;;;;;12.10;6.60;;;6.50;61.10;;;;;;5021917;28;20295;-60
2024/01/30 04:51:36;;;;;;;10.10;7.03;;;6.50;62.00;;;;;;5016869;28;20287;-60
2024/01/30 04:54:02;;;;;;;11.27;7.07;;;6.20;61.70;;;;;;5024992;28;20260;-61
2024/01/30 04:56:27;;;;;;;6.77;5.80;;;6.10;63.20;;;;;;5018000;28;20208;-59
2024/01/30 04:58:53;;;;;;;10.00;6.73;;;6.30;63.00;;;;;;5021120;28;20181;-59
2024/01/30 05:01:19;;;;;;;7.57;6.03;;;6.20;63.20;;;;;;5014884;28;20186;-61
2024/01/30 05:03:44;;;;;;;8.50;6.23;;;6.10;63.80;;;;;;5022379;28;20284;-61
2024/01/30 05:06:10;;;;;;;7.27;6.27;;;6.10;63.20;;;;;;5019275;28;20542;-60
2024/01/30 05:08:38;;;;;;;9.13;6.47;;;5.90;64.70;;;;;;5021139;28;20542;-59
2024/01/30 05:11:05;;;;;;;8.90;6.30;;;6.00;64.40;;;;;;5019674;28;20224;-60
2024/01/30 05:13:31;;;;;;;9.27;6.27;;;6.00;64.20;;;;;;5024323;28;20428;-60
2024/01/30 05:15:57;;;;;;;8.83;6.27;;;5.90;64.20;;;;;;5025166;28;20465;-61
2024/01/30 05:18:23;;;;;;;10.47;6.80;;;5.60;65.20;;;;;;5024767;28;20432;-60
2024/01/30 05:20:50;;;;;;;8.07;6.20;;;5.60;66.10;;;;;;5020660;28;20181;-61
2024/01/30 05:23:16;;;;;;;8.20;6.10;;;5.80;65.60;;;;;;5024482;28;20181;-61
2024/01/30 05:25:42;;;;;;;8.47;6.67;;;5.90;65.00;;;;;;5025007;28;20440;-60
2024/01/30 05:28:07;;;;;;;9.00;6.80;;;5.90;64.80;;;;;;5023954;28;20193;-58
2024/01/30 05:30:33;;;;;;;7.90;6.27;;;6.00;64.90;;;;;;5024285;28;20656;-59
2024/01/30 05:32:58;;;;;;;9.10;6.87;;;6.10;64.50;;;;;;5022943;28;20211;-61
2024/01/30 05:35:24;;;;;;;7.30;5.50;;;6.30;63.70;;;;;;5026642;28;20304;-60
2024/01/30 05:37:50;;;;;;;8.27;6.33;;;6.30;63.00;;;;;;5028275;28;20186;-60
2024/01/30 05:40:15;;;;;;;7.50;6.70;;;6.30;63.40;;;;;;5026033;28;20186;-60
2024/01/30 05:42:41;;;;;;;8.43;5.20;;;6.20;64.30;;;;;;5025158;28;20189;-58
2024/01/30 05:45:08;;;;;;;8.40;5.97;;;6.50;67.20;;;;;;5025302;28;20289;-61
2024/01/30 05:47:34;;;;;;;7.80;5.73;;;6.90;67.30;;;;;;5026868;28;20201;-61
2024/01/30 05:49:59;;;;;;;7.17;5.43;;;7.30;65.40;;;;;;5024763;28;20471;-61
2024/01/30 05:52:25;;;;;;;7.70;6.50;;;7.60;63.00;;;;;;5031133;28;20423;-60
2024/01/30 05:54:50;;;;;;;8.30;5.83;;;7.90;62.00;;;;;;5024670;28;20206;-61
2024/01/30 05:57:16;;;;;;;7.77;5.90;;;8.00;60.30;;;;;;5022891;28;20205;-60
2024/01/30 05:59:41;;;;;;;6.37;5.57;;;8.30;60.40;;;;;;5024785;28;20193;-60
2024/01/30 06:02:07;;;;;;;7.30;6.23;;;8.30;58.30;;;;;;5027511;28;20607;-59
2024/01/30 06:04:33;;;;;;;6.67;5.77;;;8.30;58.50;;;;;;5028366;28;20224;-61
2024/01/30 06:07:01;;;;;;;6.40;5.80;;;8.40;58.20;;;;;;5027336;28;20296;-61
2024/01/30 06:09:27;;;;;;;7.77;5.73;;;8.40;58.20;;;;;;5030326;28;20194;-60
2024/01/30 06:11:52;;;;;;;7.50;6.17;;;8.50;57.30;;;;;;5028851;28;21002;-60
2024/01/30 06:14:18;;;;;;;9.03;6.80;;;8.50;57.60;;;;;;5029781;28;20177;-61
2024/01/30 06:16:43;;;;;;;7.33;6.20;;;8.70;57.00;;;;;;5028992;28;20221;-59
2024/01/30 06:19:09;;;;;;;8.23;6.63;;;8.40;57.00;;;;;;5032110;28;20223;-57
2024/01/30 06:21:36;;;;;;;11.13;6.70;;;8.30;57.40;;;;;;5029649;28;20243;-60
2024/01/30 06:24:02;;;;;;;8.07;7.27;;;8.60;57.70;;;;;;5029795;28;20649;-59
2024/01/30 06:26:28;;;;;;;11.37;8.33;;;8.80;56.80;;;;;;5030561;28;20979;-60
2024/01/30 06:28:53;;;;;;;9.53;6.90;;;8.50;56.00;;;;;;5029654;28;20431;-60
2024/01/30 06:31:19;;;;;;;8.27;7.30;;;7.90;58.40;;;;;;5029969;28;21041;-60
2024/01/30 06:33:47;;;;;;;6.97;6.20;;;8.10;58.10;;;;;;5030848;28;20204;-61
2024/01/30 06:36:12;;;;;;;7.90;6.17;;;8.30;57.60;;;;;;5026924;28;20197;-61
2024/01/30 06:38:38;;;;;;;8.37;6.73;;;8.60;56.80;;;;;;5024001;28;20443;-59
2024/01/30 06:41:04;;;;;;;7.87;6.90;;;8.60;56.20;;;;;;5023309;28;20181;-58
2024/01/30 06:43:29;;;;;;;7.00;6.00;;;8.60;56.40;;;;;;5026613;28;21237;-60
2024/01/30 06:45:55;;;;;;;8.67;7.23;;;8.70;56.30;;;;;;5024554;28;20209;-60
2024/01/30 06:48:20;;;;;;;7.30;6.13;;;8.90;55.80;;;;;;5027388;28;20193;-59
2024/01/30 06:50:47;;;;;;;8.30;6.00;;;8.70;55.60;;;;;;5028471;28;20740;-61
2024/01/30 06:53:13;;;;;;;8.40;6.07;;;8.80;55.90;;;;;;5025192;28;20603;-61
2024/01/30 06:55:38;;;;;;;7.90;6.60;;;8.90;55.60;;;;;;5026503;28;20486;-59
2024/01/30 06:58:04;;;;;;;8.07;6.80;;;8.80;55.30;;;;;;5021131;28;20251;-61
2024/01/30 07:00:30;;;;;;;9.70;6.37;;;8.50;56.20;;;;;;5028721;28;20852;-62
2024/01/30 07:02:56;;;;;;;7.63;6.83;;;8.40;56.10;;;;;;5028136;28;20185;-61
2024/01/30 07:05:21;;;;;;;7.27;6.50;;;8.60;56.20;;;;;;5027471;28;20454;-60
2024/01/30 07:07:47;;;;;;;7.10;6.37;;;8.50;55.90;;;;;;5028269;28;20649;-61
2024/01/30 07:10:13;;;;;;;8.57;6.40;;;8.40;56.00;;;;;;5029431;28;20464;-61
2024/01/30 07:12:39;;;;;;;9.33;6.17;;;8.60;56.10;;;;;;5028162;28;20679;-58
2024/01/30 07:15:07;;;;;;;7.60;6.80;;;8.80;55.60;;;;;;5029882;28;20178;-61
2024/01/30 07:17:33;;;;;;;8.70;7.13;;;8.70;55.40;;;;;;5026858;28;20228;-60
2024/01/30 07:19:59;;;;;;;10.33;7.30;;;8.70;55.20;;;;;;5029603;28;20910;-60
2024/01/30 07:22:25;;;;;;;9.23;6.87;;;8.90;55.40;;;;;;5027446;28;20510;-58
2024/01/30 07:24:51;;;;;;;8.63;7.77;;;9.10;54.70;;;;;;5027253;28;21885;-60
2024/01/30 07:27:17;;;;;;;14.83;7.93;;;8.80;54.60;;;;;;5020909;28;20259;-61
2024/01/30 07:29:43;;;;;;;9.93;6.57;;;8.90;55.00;;;;;;5026705;28;20432;-61
2024/01/30 07:32:09;;;;;;;12.90;7.70;;;9.00;54.80;;;;;;5025222;28;20432;-61
2024/01/30 07:34:36;;;;;;;8.53;7.10;;;9.30;54.70;;;;;;5026164;28;20259;-61
2024/01/30 07:37:01;;;;;;;8.00;6.70;;;9.50;54.20;;;;;;5026671;28;20212;-61
2024/01/30 07:39:27;;;;;;;7.20;6.50;;;9.70;53.40;;;;;;5029489;28;20438;-59
2024/01/30 07:41:53;;;;;;;8.93;8.07;;;9.70;52.80;;;;;;5025500;28;20243;-60
2024/01/30 07:44:18;;;;;;;7.37;6.67;;;9.50;53.60;;;;;;5027031;28;20523;-61
2024/01/30 07:46:44;;;;;;;9.87;6.27;;;9.70;53.90;;;;;;5022111;28;20213;-61
2024/01/30 07:49:10;;;;;;;7.90;6.73;;;9.80;53.30;;;;;;5022555;28;20232;-61
2024/01/30 07:51:35;;;;;;;9.17;6.83;;;9.80;52.80;;;;;;5021818;28;20308;-58
2024/01/30 07:54:01;;;;;;;7.87;7.00;;;9.50;53.10;;;;;;5029284;28;20185;-60
2024/01/30 07:56:27;;;;;;;8.77;7.40;;;9.40;53.90;;;;;;5021659;28;20756;-61
2024/01/30 07:58:52;;;;;;;6.90;6.20;;;9.10;54.10;;;;;;5024035;28;20617;-59
2024/01/30 08:01:18;;;;;;;9.53;7.93;;;8.70;54.90;;;;;;5020097;28;20189;-59
2024/01/30 08:03:44;;;;;;;7.70;6.90;;;8.40;56.10;;;;;;5022594;28;20189;-61
2024/01/30 08:06:10;;;;;;;9.10;7.10;;;8.50;55.90;;;;;;5027245;28;20460;-60
2024/01/30 08:08:35;;;;;;;8.00;7.13;;;8.30;56.40;;;;;;5026514;28;20297;-60
2024/01/30 08:11:01;;;;;;;9.80;7.20;;;8.20;56.70;;;;;;5024860;28;20223;-59
2024/01/30 08:13:27;;;;;;;8.67;7.20;;;8.10;57.10;;;;;;5021702;28;20216;-60
2024/01/30 08:15:52;;;;;;;9.67;8.30;;;8.00;57.40;;;;;;5024903;28;20217;-60
2024/01/30 08:18:18;;;;;;;10.43;8.07;;;7.90;57.80;;;;;;5026329;28;20257;-61
2024/01/30 08:20:43;;;;;;;13.90;7.87;;;7.90;58.20;;;;;;5021844;28;20193;-60
2024/01/30 08:23:10;;;;;;;10.60;8.03;;;7.90;58.60;;;;;;5028034;28;20192;-60
2024/01/30 08:25:36;;;;;;;10.47;8.27;;;8.20;58.00;;;;;;5021779;28;20221;-60
2024/01/30 08:28:03;;;;;;;11.67;7.20;;;8.20;57.70;;;;;;5025787;28;20448;-60
2024/01/30 08:30:28;;;;;;;8.20;7.13;;;8.40;58.20;;;;;;5026207;28;20877;-61
2024/01/30 08:32:54;;;;;;;7.93;6.40;;;8.50;57.50;;;;;;5026500;28;20420;-61
2024/01/30 08:35:19;;;;;;;7.63;6.03;;;8.50;59.80;;;;;;5025047;28;20178;-61
2024/01/30 08:37:45;;;;;;;7.40;5.70;;;8.90;59.00;;;;;;5023481;28;20182;-62
2024/01/30 08:40:10;;;;;;;8.27;6.67;;;9.10;57.90;;;;;;5021949;28;20193;-61
2024/01/30 08:42:36;;;;;;;8.50;6.57;;;9.50;57.10;;;;;;5021831;28;20177;-60
2024/01/30 08:45:04;;;;;;;12.87;8.50;;;9.80;57.00;;;;;;5025802;28;20671;-60
2024/01/30 08:47:30;;;;;;;7.33;6.63;;;10.20;55.40;;;;;;5020918;28;20208;-60
2024/01/30 08:49:56;;;;;;;14.17;8.40;;;10.40;55.00;;;;;;5018869;28;20471;-61
2024/01/30 08:52:22;;;;;;;22.27;10.37;;;10.70;54.50;;;;;;5026888;28;20502;-61
2024/01/30 08:54:47;;;;;;;14.70;8.20;;;11.10;54.40;;;;;;5028973;28;20778;-59
2024/01/30 08:57:13;;;;;;;12.87;8.10;;;11.40;53.40;;;;;;5018810;28;20205;-62
2024/01/30 08:59:38;;;;;;;9.83;7.63;;;11.70;53.60;;;;;;5026531;28;20185;-60
2024/01/30 09:02:04;;;;;;;11.60;8.50;;;12.00;53.20;;;;;;5025433;28;20238;-61
2024/01/30 09:04:30;;;;;;;10.60;8.17;;;12.00;50.50;;;;;;5025751;28;20273;-63
2024/01/30 09:06:56;;;;;;;11.37;8.23;;;11.90;51.60;;;;;;5017267;28;20497;-63
2024/01/30 09:09:21;;;;;;;42.10;10.90;;;12.20;52.00;;;;;;5020094;28;20184;-61
2024/01/30 09:11:47;;;;;;;82.43;25.03;;;12.50;52.00;;;;;;5020814;28;20757;-62
2024/01/30 09:14:13;;;;;;;31.87;12.30;;;12.70;52.90;;;;;;5028659;28;20272;-63
2024/01/30 09:16:38;;;;;;;12.53;7.80;;;12.90;51.00;;;;;;5029677;28;20220;-61
2024/01/30 09:19:04;;;;;;;11.90;7.30;;;13.10;50.70;;;;;;5022242;28;20185;-62
2024/01/30 09:21:30;;;;;;;8.37;6.90;;;13.10;49.40;;;;;;5026398;28;20196;-64
2024/01/30 09:24:03;;;;;;;10.07;8.00;;;13.20;48.90;;;;;;5015639;28;20189;-62
2024/01/30 09:26:29;;;;;;;10.60;7.37;;;13.40;49.10;;;;;;5020456;28;20677;-61
2024/01/30 09:28:54;;;;;;;9.73;7.47;;;13.40;49.00;;;;;;5016722;28;20548;-62
2024/01/30 09:31:20;;;;;;;10.47;7.00;;;13.30;48.00;;;;;;5018128;28;21035;-61
2024/01/30 09:33:47;;;;;;;9.10;7.70;;;13.40;49.40;;;;;;5022994;28;20551;-61
2024/01/30 09:36:15;;;;;;;8.13;7.33;;;13.60;49.00;;;;;;5022027;28;20256;-60
2024/01/30 09:38:41;;;;;;;9.07;7.30;;;13.80;49.00;;;;;;5023433;28;20442;-61
2024/01/30 09:41:10;;;;;;;11.87;7.97;;;13.70;48.70;;;;;;5022016;28;20448;-62
2024/01/30 09:43:38;;;;;;;11.07;6.50;;;13.70;48.00;;;;;;5027939;28;20196;-61
2024/01/30 09:46:05;;;;;;;10.60;7.60;;;13.70;50.00;;;;;;5019932;28;20498;-61
2024/01/30 09:48:31;;;;;;;13.80;8.53;;;14.20;50.20;;;;;;5022171;28;20456;-62
2024/01/30 09:50:58;;;;;;;16.10;7.30;;;14.80;48.40;;;;;;5018344;28;20479;-62
2024/01/30 09:53:25;;;;;;;8.83;7.63;;;15.20;47.10;;;;;;5024376;28;20442;-62
2024/01/30 09:55:51;;;;;;;9.37;7.40;;;15.50;48.20;;;;;;5029400;28;20451;-62
2024/01/30 09:58:17;;;;;;;7.87;6.80;;;15.80;45.80;;;;;;5026989;28;20518;-63
2024/01/30 10:00:42;;;;;;;8.43;6.70;;;16.10;45.00;;;;;;5029013;28;20440;-62
2024/01/30 10:03:08;;;;;;;10.40;8.20;;;16.30;43.80;;;;;;5024688;28;20446;-60
2024/01/30 10:05:37;;;;;;;9.60;8.57;;;16.40;43.60;;;;;;5024631;28;20190;-62
2024/01/30 10:08:08;;;;;;;9.87;8.60;;;16.20;43.10;;;;;;5030434;28;20494;-63
2024/01/30 10:10:33;;;;;;;11.83;9.10;;;16.10;44.00;;;;;;5022347;28;20480;-62
2024/01/30 10:12:59;;;;;;;11.63;9.30;;;16.10;43.50;;;;;;5023446;28;20529;-61
2024/01/30 10:15:27;;;;;;;12.30;9.17;;;16.10;43.50;;;;;;5030473;28;20207;-61
2024/01/30 10:17:53;;;;;;;13.50;9.60;;;16.10;43.70;;;;;;5023026;28;20193;-62
2024/01/30 10:20:19;;;;;;;10.57;8.30;;;16.00;43.60;;;;;;5027457;28;20432;-63
2024/01/30 10:22:45;;;;;;;12.47;9.10;;;16.00;43.90;;;;;;5022986;28;20199;-63
2024/01/30 10:25:11;;;;;;;9.93;8.93;;;16.00;44.40;;;;;;5026262;28;20496;-61
2024/01/30 10:27:39;;;;;;;10.07;8.57;;;16.00;44.40;;;;;;5026803;28;20464;-62
2024/01/30 10:30:06;;;;;;;12.20;8.20;;;16.00;44.60;;;;;;5026533;28;20755;-63
2024/01/30 10:32:31;;;;;;;12.87;9.70;;;16.00;44.60;;;;;;5028536;28;20435;-61
2024/01/30 10:34:57;;;;;;;11.50;8.17;;;16.10;44.80;;;;;;5026655;28;20539;-63
2024/01/30 10:37:25;;;;;;;9.30;8.30;;;16.10;45.20;;;;;;5026086;28;20278;-62
2024/01/30 10:39:55;;;;;;;100.47;20.43;;;15.80;45.30;;;;;;5031075;28;20198;-61
2024/01/30 10:42:24;;;;;;;24.63;10.10;;;15.70;45.80;;;;;;5025414;28;20875;-62
2024/01/30 10:45:13;;;;;;;15.80;8.87;;;15.70;45.60;;;;;;5025750;28;21017;-62
2024/01/30 10:47:49;;;;;;;12.57;8.67;;;15.90;45.60;;;;;;5024909;28;20892;-62
2024/01/30 10:50:15;;;;;;;11.47;9.87;;;15.90;45.30;;;;;;5028548;28;20471;-62
2024/01/30 10:52:42;;;;;;;15.07;10.20;;;15.80;46.10;;;;;;5027947;28;20443;-62
2024/01/30 10:55:08;;;;;;;12.80;9.40;;;15.50;46.50;;;;;;5030247;28;20420;-62
2024/01/30 10:57:37;;;;;;;11.53;9.00;;;15.40;46.70;;;;;;5021775;28;20983;-61
2024/01/30 11:00:11;;;;;;;10.90;9.10;;;15.50;46.80;;;;;;5029879;28;20419;-62
2024/01/30 11:02:39;;;;;;;10.40;8.10;;;15.50;46.90;;;;;;5024412;28;20473;-62
2024/01/30 11:05:05;;;;;;;12.37;8.47;;;15.70;46.00;;;;;;5021289;28;20440;-63
2024/01/30 11:07:31;;;;;;;12.80;7.70;;;15.80;45.40;;;;;;5022964;28;20460;-62
2024/01/30 11:10:03;;;;;;;9.30;7.10;;;15.90;44.90;;;;;;5029734;28;20442;-61
2024/01/30 11:12:30;;;;;;;9.00;7.40;;;15.90;44.70;;;;;;5025002;28;20193;-62
2024/01/30 11:15:05;;;;;;;10.90;8.07;;;16.10;45.00;;;;;;5026989;28;20435;-63
2024/01/30 11:17:49;;;;;;;9.30;7.80;;;16.20;44.80;;;;;;5023325;28;20866;-63
2024/01/30 11:20:22;;;;;;;13.93;9.10;;;16.40;44.70;;;;;;5024311;28;20444;-62
2024/01/30 11:22:51;;;;;;;13.00;10.00;;;16.50;44.90;;;;;;5028022;28;20440;-63
2024/01/30 11:25:19;;;;;;;17.00;10.20;;;16.50;45.00;;;;;;5028336;28;20951;-62
2024/01/30 11:27:45;;;;;;;12.93;9.30;;;16.60;44.90;;;;;;5022856;28;20971;-62
2024/01/30 11:30:20;;;;;;;13.63;9.00;;;16.70;44.80;;;;;;5028482;28;20479;-63
2024/01/30 11:32:46;;;;;;;10.10;8.60;;;16.70;44.30;;;;;;5023628;28;20858;-62
2024/01/30 11:35:12;;;;;;;12.30;8.60;;;16.70;44.60;;;;;;5025429;28;20435;-63
2024/01/30 11:37:40;;;;;;;14.60;8.90;;;16.70;44.70;;;;;;5025174;28;20628;-63
2024/01/30 11:40:08;;;;;;;10.07;6.77;;;16.80;44.70;;;;;;5027440;28;20560;-61
2024/01/30 11:42:36;;;;;;;9.43;6.00;;;16.80;44.70;;;;;;5021283;28;20783;-62
2024/01/30 11:45:02;;;;;;;18.23;10.20;;;16.90;44.00;;;;;;5024752;28;20430;-62
2024/01/30 11:47:28;;;;;;;36.73;13.00;;;16.90;44.00;;;;;;5026995;28;20862;-63
2024/01/30 11:49:54;;;;;;;25.50;11.00;;;16.90;44.10;;;;;;5028403;28;20436;-63
2024/01/30 11:52:20;;;;;;;17.50;11.63;;;17.00;44.10;;;;;;5024387;28;20440;-62
2024/01/30 11:54:45;;;;;;;23.40;10.83;;;17.00;44.10;;;;;;5024367;28;20196;-61
2024/01/30 11:57:11;;;;;;;15.80;11.43;;;17.00;44.40;;;;;;5021616;28;20214;-62
2024/01/30 11:59:37;;;;;;;20.03;11.67;;;17.00;44.40;;;;;;5026081;28;20199;-63
2024/01/30 12:02:02;;;;;;;19.00;12.23;;;17.00;44.30;;;;;;5025863;28;20683;-63
2024/01/30 12:04:29;;;;;;;21.30;12.67;;;17.10;44.30;;;;;;5027432;28;20763;-63
2024/01/30 12:06:55;;;;;;;16.67;10.17;;;17.00;44.70;;;;;;5019391;28;20213;-62
2024/01/30 12:09:21;;;;;;;11.50;8.33;;;17.10;44.60;;;;;;5029097;28;20440;-61
2024/01/30 12:11:48;;;;;;;9.37;8.47;;;17.10;44.10;;;;;;5024359;28;20361;-63
2024/01/30 12:14:14;;;;;;;23.63;12.03;;;17.20;44.30;;;;;;5026036;28;20475;-62
2024/01/30 12:16:41;;;;;;;14.57;10.03;;;17.20;43.90;;;;;;5023512;28;20491;-60
2024/01/30 12:19:07;;;;;;;12.50;9.50;;;17.20;44.10;;;;;;5025653;28;20412;-62
2024/01/30 12:21:34;;;;;;;14.27;9.50;;;17.20;44.30;;;;;;5026552;28;20439;-62
2024/01/30 12:24:00;;;;;;;18.03;9.53;;;17.30;44.40;;;;;;5027947;28;20276;-62
2024/01/30 12:26:26;;;;;;;14.87;12.07;;;17.30;44.30;;;;;;5024513;28;20463;-62
2024/01/30 12:28:55;;;;;;;15.27;10.87;;;17.30;44.30;;;;;;5026525;28;20531;-61
2024/01/30 12:31:28;;;;;;;12.23;9.03;;;17.40;44.20;;;;;;5021574;28;20472;-62
2024/01/30 12:33:55;;;;;;;13.10;9.60;;;17.40;44.30;;;;;;5023496;28;20456;-62
2024/01/30 12:36:22;;;;;;;10.83;9.13;;;17.30;44.40;;;;;;5024160;28;20478;-63
2024/01/30 12:38:47;;;;;;;8.83;8.00;;;17.30;44.90;;;;;;5026016;28;20594;-63
2024/01/30 12:41:13;;;;;;;11.77;9.00;;;17.20;44.80;;;;;;5022381;28;20534;-63
2024/01/30 12:43:39;;;;;;;13.43;8.50;;;17.20;45.80;;;;;;5026803;28;20192;-62